Home > Products > Valid Products > MTR

000
SAUS46 KMFR 231657
MTRSXT
METAR KSXT 231656Z AUTO 10005KT 10SM CLR 21/07 A3013 RMK AO2 SLP162
T02060072





000
SAUS46 KMFR 231557
MTRSXT
METAR KSXT 231556Z AUTO VRB04KT 10SM CLR 17/07 A3013 RMK AO2 SLP165
T01720067





000
SAUS46 KMFR 231457
MTRSXT
METAR KSXT 231456Z AUTO VRB04KT 10SM CLR 16/06 A3012 RMK AO2 SLP161
T01610061 53005





000
SAUS46 KMFR 231357
MTRSXT
METAR KSXT 231356Z AUTO 08005KT 10SM CLR 14/06 A3011 RMK AO2 SLP158
T01440056





000
SAUS46 KMFR 231257
MTRSXT
METAR KSXT 231256Z AUTO 06009KT 10SM CLR 13/06 A3011 RMK AO2 SLP158
T01330061





000
SAUS46 KMFR 231157
MTRSXT
METAR KSXT 231156Z AUTO 05008KT 10SM CLR 13/07 A3010 RMK AO2 SLP156
T01280067 10139 20117 53001





000
SAUS46 KMFR 231057
MTRSXT
METAR KSXT 231056Z AUTO 08004KT 10SM CLR 13/07 A3010 RMK AO2 SLP152
T01330067





000
SAUS46 KMFR 230957
MTRSXT
METAR KSXT 230956Z AUTO 01009KT 10SM CLR 12/08 A3009 RMK AO2 SLP153
T01170083





000
SAUS46 KMFR 230857
MTRSXT
METAR KSXT 230856Z AUTO 01009KT 10SM CLR 13/08 A3010 RMK AO2 SLP154
T01280078 53001





000
SAUS46 KMFR 230757
MTRSXT
METAR KSXT 230756Z AUTO 36010KT 10SM CLR 13/08 A3009 RMK AO2 SLP155
T01280083 402060094





000
SAUS46 KMFR 230657
MTRSXT
METAR KSXT 230656Z AUTO 35010G17KT 10SM CLR 13/08 A3009 RMK AO2
SLP155 T01280083





000
SAUS46 KMFR 230557
MTRSXT
METAR KSXT 230556Z AUTO 01012G21KT 10SM CLR 14/07 A3009 RMK AO2
SLP159 T01390072 10200 20139 51007





000
SAUS46 KMFR 230457
MTRSXT
METAR KSXT 230456Z AUTO 36008G20KT 320V030 10SM CLR 14/06 A3009 RMK
AO2 SLP160 T01390061





000
SAUS46 KMFR 230357
MTRSXT
METAR KSXT 230356Z AUTO 01008G20KT 10SM CLR 14/07 A3009 RMK AO2
SLP160 T01440067





000
SAUS46 KMFR 230257
MTRSXT
METAR KSXT 230256Z AUTO VRB06G16KT 10SM CLR 16/07 A3007 RMK AO2
SLP155 T01560072 53001





000
SAUS46 KMFR 230157
MTRSXT
METAR KSXT 230156Z AUTO VRB05KT 10SM CLR 18/07 A3006 RMK AO2 SLP149
T01780072





000
SAUS46 KMFR 230057
MTRSXT
METAR KSXT 230056Z AUTO VRB04KT 10SM CLR 19/08 A3007 RMK AO2 SLP150
T01890078





000
SAUS46 KMFR 222357
MTRSXT
METAR KSXT 222356Z AUTO 10SM CLR 19/07 A3007 RMK AO2 SLP147
T01940067 10206 20144 58000





000
SAUS46 KMFR 222257
MTRSXT
METAR KSXT 222256Z AUTO VRB03KT 10SM CLR 20/06 A3007 RMK AO2 SLP146
T02000061





000
SAUS46 KMFR 222157
MTRSXT
METAR KSXT 222156Z AUTO 35007KT 10SM CLR 20/07 A3007 RMK AO2 SLP147
T02000072





000
SAUS46 KMFR 222057
MTRSXT
METAR KSXT 222056Z AUTO VRB03KT 10SM CLR 19/08 A3007 RMK AO2 SLP146
T01940083 58003





000
SAUS46 KMFR 221957
MTRSXT
METAR KSXT 221956Z AUTO VRB04KT 10SM CLR 18/08 A3007 RMK AO2 SLP148
T01830083





000
SAUS46 KMFR 221857
MTRSXT
METAR KSXT 221856Z AUTO VRB03KT 10SM SCT023 18/09 A3008 RMK AO2
SLP152 T01780094





000
SAUS46 KMFR 221757
MTRSXT
METAR KSXT 221756Z AUTO 10SM CLR 15/09 A3008 RMK AO2 SLP155
T01500094 10150 20094 53007





000
SAUS46 KMFR 221657
MTRSXT
METAR KSXT 221656Z AUTO 01006KT 10SM FEW007 13/09 A3007 RMK AO2
SLP152 T01330094





000
SAUS46 KMFR 221627
MTRSXT
SPECI KSXT 221626Z AUTO 36006KT 10SM FEW008 12/09 A3006 RMK AO2
T01220094





000
SAUS46 KMFR 221557
MTRSXT
METAR KSXT 221556Z AUTO VRB06KT 10SM CLR 12/09 A3006 RMK AO2 SLP150
T01170089





000
SAUS46 KMFR 221457
MTRSXT
METAR KSXT 221456Z AUTO 36007KT 10SM FEW031 11/09 A3005 RMK AO2
SLP147 T01060089 53005





000
SAUS46 KMFR 221357
MTRSXT
METAR KSXT 221356Z AUTO 36009KT 10SM CLR 09/08 A3004 RMK AO2 SLP138
T00940083





000
SAUS46 KMFR 221257
MTRSXT
METAR KSXT 221256Z AUTO 35008KT 10SM CLR 10/08 A3003 RMK AO2 SLP132
T01000083





000
SAUS46 KMFR 221157
MTRSXT
METAR KSXT 221156Z AUTO 36009KT 10SM FEW010 10/08 A3003 RMK AO2
SLP128 T01000083 10128 20100 58004





000
SAUS46 KMFR 221057
MTRSXT
METAR KSXT 221056Z AUTO 34007KT 10SM BKN035 11/07 A3004 RMK AO2
SLP131 T01060072





000
SAUS46 KMFR 220957
MTRSXT
METAR KSXT 220956Z AUTO 36004KT 10SM FEW008 SCT038 11/07 A3004 RMK
AO2 SLP131 T01060072





000
SAUS46 KMFR 220932
MTRSXT
SPECI KSXT 220931Z AUTO 36007KT 10SM SCT008 OVC034 11/07 A3005 RMK
AO2 T01110072





000
SAUS46 KMFR 220857
MTRSXT
METAR KSXT 220856Z AUTO 34006KT 10SM BKN030 11/07 A3005 RMK AO2
SLP133 T01110072 55002





000
SAUS46 KMFR 220757
MTRSXT
METAR KSXT 220756Z AUTO 35007KT 10SM FEW034 11/07 A3005 RMK AO2
SLP139 T01110072 402390111





000
SAUS46 KMFR 220657
MTRSXT
METAR KSXT 220656Z AUTO 34007KT 10SM FEW038 12/08 A3005 RMK AO2
SLP141 T01220078





000
SAUS46 KMFR 220557
MTRSXT
METAR KSXT 220556Z AUTO 34006KT 10SM CLR 13/07 A3005 RMK AO2 SLP143
T01280067 10239 20128 50001





000
SAUS46 KMFR 220500
MTRMHS
METAR KMHS 220456Z AUTO 05003KT 5SM HZ CLR 17/03 A3001 RMK AO2
SLP152 T01670033





000
SAUS46 KMFR 220457
MTRSXT
METAR KSXT 220456Z AUTO 34008KT 10SM CLR 14/06 A3006 RMK AO2 SLP142
T01390061





000
SAUS46 KMFR 220357
MTRSXT
METAR KSXT 220356Z AUTO VRB06G15KT 10SM CLR 15/04 A3005 RMK AO2
SLP143 T01500039





000
SAUS46 KMFR 220257
MTRSXT
METAR KSXT 220256Z AUTO 35007KT 10SM CLR 17/04 A3005 RMK AO2 SLP138
T01720044 55002





000
SAUS46 KMFR 220157
MTRSXT
METAR KSXT 220156Z AUTO VRB04KT 10SM CLR 20/04 A3005 RMK AO2 SLP133
T02000039





000
SAUS46 KMFR 220057
MTRSXT
METAR KSXT 220056Z AUTO 33007KT 270V050 10SM CLR 22/03 A3006 RMK AO2
SLP134 T02220033





000
SAUS46 KMFR 212357
MTRSXT
METAR KSXT 212356Z AUTO VRB05KT 10SM CLR 24/03 A3006 RMK AO2 SLP132
T02390033 10239 20172 56014





000
SAUS46 KMFR 212257
MTRSXT
METAR KSXT 212256Z AUTO 00000KT 10SM CLR 24/04 A3007 RMK AO2 SLP136
T02390039





000
SAUS46 KMFR 212157
MTRSXT
METAR KSXT 212156Z AUTO VRB04KT 10SM CLR 23/04 A3009 RMK AO2 SLP146
T02330044





000
SAUS46 KMFR 212057
MTRSXT
METAR KSXT 212056Z AUTO VRB03KT 10SM CLR 23/01 A3010 RMK AO2 SLP152
T02280011 56002





000
SAUS46 KMFR 211957
MTRSXT
METAR KSXT 211956Z AUTO VRB03KT 10SM CLR 20/02 A3010 RMK AO2 SLP157
T02000017





000
SAUS46 KMFR 211857
MTRSXT
METAR KSXT 211856Z AUTO 00000KT 10SM CLR 19/05 A3011 RMK AO2 SLP159
T01890050





000
SAUS46 KMFR 211757
MTRSXT
METAR KSXT 211756Z AUTO 00000KT 10SM CLR 17/10 A3011 RMK AO2 SLP162
T01720100 10178 20122 51009





000
SAUS46 KMFR 211657
MTRSXT
METAR KSXT 211656Z AUTO 00000KT 10SM CLR 17/09 A3010 RMK AO2 SLP159
T01720094





000
SAUS46 KMFR 211601 COR
MTRMHS
METAR KMHS 211556Z AUTO VRB04KT 10SM CLR 18/10 A3006 RMK AO2 SLP167
T01830100





000
SAUS46 KMFR 211557
MTRSXT
METAR KSXT 211556Z AUTO VRB04KT 10SM CLR 15/09 A3009 RMK AO2 SLP156
T01500089





000
SAUS46 KMFR 211457
MTRSXT
METAR KSXT 211456Z AUTO 00000KT 10SM CLR 14/07 A3008 RMK AO2 SLP150
T01440067 53003





000
SAUS46 KMFR 211357
MTRSXT
METAR KSXT 211356Z AUTO 00000KT 10SM CLR 14/01 A3007 RMK AO2 SLP145
T01440011





000
SAUS46 KMFR 211257
MTRSXT
METAR KSXT 211256Z AUTO 02005KT 10SM CLR 13/02 A3007 RMK AO2 SLP145
T01280022





000
SAUS46 KMFR 211157
MTRSXT
METAR KSXT 211156Z AUTO 02005KT 10SM CLR 12/05 A3007 RMK AO2 SLP143
T01220050 10128 20111 50001





000
SAUS46 KMFR 211057
MTRSXT
METAR KSXT 211056Z AUTO 01008KT 10SM CLR 12/07 A3007 RMK AO2 SLP144
T01220072





000
SAUS46 KMFR 210957
MTRSXT
METAR KSXT 210956Z AUTO 02008KT 10SM CLR 12/08 A3007 RMK AO2 SLP140
T01170078





000
SAUS46 KMFR 210857
MTRSXT
METAR KSXT 210856Z AUTO 36010KT 10SM CLR 12/09 A3006 RMK AO2 SLP141
T01170089 51006





000
SAUS46 KMFR 210757
MTRSXT
METAR KSXT 210756Z AUTO 01010G15KT 10SM CLR 12/09 A3006 RMK AO2
SLP139 T01220089 402220117





000
SAUS46 KMFR 210657
MTRSXT
METAR KSXT 210656Z AUTO 36011G17KT 10SM CLR 12/10 A3005 RMK AO2
SLP141 T01220100





000
SAUS46 KMFR 210557
MTRSXT
METAR KSXT 210556Z AUTO 35010KT 10SM CLR 13/10 A3005 RMK AO2 SLP140
T01280100 10206 20128 53007





000
SAUS46 KMFR 210457
MTRSXT
METAR KSXT 210456Z AUTO 35007KT 10SM CLR 14/09 A3004 RMK AO2 SLP141
T01390094





000
SAUS46 KMFR 210357
MTRSXT
METAR KSXT 210356Z AUTO 35009G19KT 320V020 10SM CLR 15/09 A3002 RMK
AO2 SLP131 T01500094





000
SAUS46 KMFR 210257
MTRSXT
METAR KSXT 210256Z AUTO VRB03KT 10SM CLR 16/10 A3002 RMK AO2 SLP132
T01610100 53002





000
SAUS46 KMFR 210157
MTRSXT
METAR KSXT 210156Z AUTO 00000KT 10SM CLR 18/10 A3002 RMK AO2 SLP128
T01830100





000
SAUS46 KMFR 210057
MTRSXT
METAR KSXT 210056Z AUTO 35004KT 10SM CLR 19/10 A3002 RMK AO2 SLP129
T01940100





000
SAUS46 KMFR 202357
MTRSXT
METAR KSXT 202356Z AUTO 10SM CLR 21/10 A3001 RMK AO2 SLP124
T02060100 10222 20167 55005





000
SAUS46 KMFR 202257
MTRSXT
METAR KSXT 202256Z AUTO VRB04KT 10SM CLR 21/11 A3001 RMK AO2 SLP121
T02110106





000
SAUS46 KMFR 202157
MTRSXT
METAR KSXT 202156Z AUTO VRB04KT 10SM FEW032 22/11 A3002 RMK AO2
SLP120 T02220106





000
SAUS46 KMFR 202057
MTRSXT
METAR KSXT 202056Z AUTO VRB03KT 10SM FEW030 22/11 A3003 RMK AO2
SLP127 T02170111 55000





000
SAUS46 KMFR 201957
MTRSXT
METAR KSXT 201956Z AUTO 00000KT 10SM CLR 21/12 A3003 RMK AO2 SLP130
T02060122





000
SAUS46 KMFR 201857
MTRSXT
METAR KSXT 201856Z AUTO 34005KT 10SM CLR 18/13 A3003 RMK AO2 SLP131
T01830128





000
SAUS46 KMFR 201800
MTRSXT
METAR KSXT 201756Z AUTO 34006KT 10SM SCT006 17/13 A3003 RMK AO2
SLP134 T01670128 10167 20117 51009





    US Dept of Commerce
    National Oceanic and Atmospheric Administration
    National Weather Service
    1325 East West Highway
    Silver Spring, MD 20910
    Page Author: NWS Internet Services Team
Disclaimer
Information Quality
Credits
Glossary
Privacy Policy
Freedom of Information Act (FOIA)
About Us
Career Opportunities